sensor_id;sensor_type;location;lat;lon;timestamp;temperature;humidity
72202;SHT30;60105;54.956;73.412;2023-06-10T00:03:19;16.83;55.62
72202;SHT30;60105;54.956;73.412;2023-06-10T00:06:20;16.85;54.59
72202;SHT30;60105;54.956;73.412;2023-06-10T00:09:25;16.91;55.23
72202;SHT30;60105;54.956;73.412;2023-06-10T00:12:27;16.97;54.96
72202;SHT30;60105;54.956;73.412;2023-06-10T00:15:30;17.01;55.14
72202;SHT30;60105;54.956;73.412;2023-06-10T00:18:31;16.91;56.05
72202;SHT30;60105;54.956;73.412;2023-06-10T00:21:34;17.00;57.74
72202;SHT30;60105;54.956;73.412;2023-06-10T00:24:38;17.00;60.38
72202;SHT30;60105;54.956;73.412;2023-06-10T00:27:47;17.00;62.39
72202;SHT30;60105;54.956;73.412;2023-06-10T00:30:49;16.92;63.38
72202;SHT30;60105;54.956;73.412;2023-06-10T00:33:50;16.90;64.02
72202;SHT30;60105;54.956;73.412;2023-06-10T00:36:52;16.83;64.60
72202;SHT30;60105;54.956;73.412;2023-06-10T00:39:53;16.83;64.96
72202;SHT30;60105;54.956;73.412;2023-06-10T00:43:19;16.69;65.68
72202;SHT30;60105;54.956;73.412;2023-06-10T00:46:22;16.70;65.81
72202;SHT30;60105;54.956;73.412;2023-06-10T00:49:24;16.66;66.45
72202;SHT30;60105;54.956;73.412;2023-06-10T00:52:28;16.85;65.95
72202;SHT30;60105;54.956;73.412;2023-06-10T00:55:32;16.92;65.49
72202;SHT30;60105;54.956;73.412;2023-06-10T00:58:35;17.01;65.19
72202;SHT30;60105;54.956;73.412;2023-06-10T01:01:37;17.08;66.09
72202;SHT30;60105;54.956;73.412;2023-06-10T01:04:40;17.12;65.75
72202;SHT30;60105;54.956;73.412;2023-06-10T01:08:41;17.34;64.85
72202;SHT30;60105;54.956;73.412;2023-06-10T01:11:47;17.48;64.62
72202;SHT30;60105;54.956;73.412;2023-06-10T01:14:53;17.55;63.63
72202;SHT30;60105;54.956;73.412;2023-06-10T01:18:19;17.66;63.79
72202;SHT30;60105;54.956;73.412;2023-06-10T01:21:23;17.66;63.11
72202;SHT30;60105;54.956;73.412;2023-06-10T01:24:28;17.73;63.30
72202;SHT30;60105;54.956;73.412;2023-06-10T01:27:33;17.83;63.72
72202;SHT30;60105;54.956;73.412;2023-06-10T01:31:13;18.10;63.12
72202;SHT30;60105;54.956;73.412;2023-06-10T01:34:18;18.31;61.50
72202;SHT30;60105;54.956;73.412;2023-06-10T01:37:22;18.56;61.25
72202;SHT30;60105;54.956;73.412;2023-06-10T01:40:26;18.61;60.58
72202;SHT30;60105;54.956;73.412;2023-06-10T01:43:27;18.72;58.95
72202;SHT30;60105;54.956;73.412;2023-06-10T01:46:29;18.75;59.27
72202;SHT30;60105;54.956;73.412;2023-06-10T01:49:30;18.76;57.80
72202;SHT30;60105;54.956;73.412;2023-06-10T01:52:32;18.75;57.21
72202;SHT30;60105;54.956;73.412;2023-06-10T01:55:33;18.85;58.29
72202;SHT30;60105;54.956;73.412;2023-06-10T01:58:34;19.02;54.82
72202;SHT30;60105;54.956;73.412;2023-06-10T02:01:36;19.23;54.73
72202;SHT30;60105;54.956;73.412;2023-06-10T02:04:40;19.54;53.30
72202;SHT30;60105;54.956;73.412;2023-06-10T02:08:19;19.67;49.71
72202;SHT30;60105;54.956;73.412;2023-06-10T02:11:21;19.73;52.56
72202;SHT30;60105;54.956;73.412;2023-06-10T02:14:23;19.71;50.51
72202;SHT30;60105;54.956;73.412;2023-06-10T02:17:26;19.75;48.71
72202;SHT30;60105;54.956;73.412;2023-06-10T02:20:47;19.74;48.62
72202;SHT30;60105;54.956;73.412;2023-06-10T02:23:48;19.68;49.80
72202;SHT30;60105;54.956;73.412;2023-06-10T02:26:50;19.67;49.60
72202;SHT30;60105;54.956;73.412;2023-06-10T02:29:52;19.61;49.34
72202;SHT30;60105;54.956;73.412;2023-06-10T02:33:19;19.67;48.16
72202;SHT30;60105;54.956;73.412;2023-06-10T02:36:21;19.68;47.51
72202;SHT30;60105;54.956;73.412;2023-06-10T02:39:25;19.65;47.91
72202;SHT30;60105;54.956;73.412;2023-06-10T02:42:26;19.67;48.64
72202;SHT30;60105;54.956;73.412;2023-06-10T02:45:28;19.73;47.15
72202;SHT30;60105;54.956;73.412;2023-06-10T02:48:31;19.67;49.78
72202;SHT30;60105;54.956;73.412;2023-06-10T02:51:33;19.81;52.77
72202;SHT30;60105;54.956;73.412;2023-06-10T02:54:37;19.96;53.50
72202;SHT30;60105;54.956;73.412;2023-06-10T02:57:47;20.13;53.99
72202;SHT30;60105;54.956;73.412;2023-06-10T03:00:49;20.11;53.62
72202;SHT30;60105;54.956;73.412;2023-06-10T03:03:51;20.22;52.13
72202;SHT30;60105;54.956;73.412;2023-06-10T03:06:54;20.47;51.19
72202;SHT30;60105;54.956;73.412;2023-06-10T03:10:02;20.50;50.60
72202;SHT30;60105;54.956;73.412;2023-06-10T03:13:19;20.69;49.49
72202;SHT30;60105;54.956;73.412;2023-06-10T03:16:20;20.74;49.26
72202;SHT30;60105;54.956;73.412;2023-06-10T03:19:22;20.70;50.61
72202;SHT30;60105;54.956;73.412;2023-06-10T03:22:26;20.69;46.88
72202;SHT30;60105;54.956;73.412;2023-06-10T03:25:39;20.76;47.15
72202;SHT30;60105;54.956;73.412;2023-06-10T03:28:41;20.80;48.04
72202;SHT30;60105;54.956;73.412;2023-06-10T03:31:43;20.83;46.66
72202;SHT30;60105;54.956;73.412;2023-06-10T03:34:45;20.87;48.37
72202;SHT30;60105;54.956;73.412;2023-06-10T03:38:19;20.94;46.57
72202;SHT30;60105;54.956;73.412;2023-06-10T03:41:20;21.00;47.97
72202;SHT30;60105;54.956;73.412;2023-06-10T03:44:24;21.12;51.38
72202;SHT30;60105;54.956;73.412;2023-06-10T03:47:29;21.15;49.76
72202;SHT30;60105;54.956;73.412;2023-06-10T03:50:35;21.18;46.12
72202;SHT30;60105;54.956;73.412;2023-06-10T03:53:38;21.12;46.34
72202;SHT30;60105;54.956;73.412;2023-06-10T03:56:40;21.12;46.17
72202;SHT30;60105;54.956;73.412;2023-06-10T03:59:41;21.11;47.14
72202;SHT30;60105;54.956;73.412;2023-06-10T04:03:19;21.08;44.96
72202;SHT30;60105;54.956;73.412;2023-06-10T04:06:25;21.04;45.99
72202;SHT30;60105;54.956;73.412;2023-06-10T04:09:29;20.91;46.76
72202;SHT30;60105;54.956;73.412;2023-06-10T04:12:30;20.90;47.47
72202;SHT30;60105;54.956;73.412;2023-06-10T04:15:31;20.98;46.72
72202;SHT30;60105;54.956;73.412;2023-06-10T04:18:41;20.84;47.43
72202;SHT30;60105;54.956;73.412;2023-06-10T04:21:43;20.83;46.55
72202;SHT30;60105;54.956;73.412;2023-06-10T04:24:44;20.80;47.09
72202;SHT30;60105;54.956;73.412;2023-06-10T04:27:47;20.85;46.95
72202;SHT30;60105;54.956;73.412;2023-06-10T04:30:49;20.90;47.76
72202;SHT30;60105;54.956;73.412;2023-06-10T04:33:51;20.77;46.75
72202;SHT30;60105;54.956;73.412;2023-06-10T04:36:52;20.87;46.96
72202;SHT30;60105;54.956;73.412;2023-06-10T04:39:54;21.04;46.64
72202;SHT30;60105;54.956;73.412;2023-06-10T04:43:19;20.92;45.10
72202;SHT30;60105;54.956;73.412;2023-06-10T04:46:21;21.10;46.40
72202;SHT30;60105;54.956;73.412;2023-06-10T04:49:23;21.24;46.28
72202;SHT30;60105;54.956;73.412;2023-06-10T04:52:24;21.39;46.90
72202;SHT30;60105;54.956;73.412;2023-06-10T04:55:26;21.43;45.39
72202;SHT30;60105;54.956;73.412;2023-06-10T04:58:27;21.43;45.72
72202;SHT30;60105;54.956;73.412;2023-06-10T05:01:28;21.56;45.93
72202;SHT30;60105;54.956;73.412;2023-06-10T05:04:31;21.60;45.55
72202;SHT30;60105;54.956;73.412;2023-06-10T05:07:32;21.70;44.46
72202;SHT30;60105;54.956;73.412;2023-06-10T05:10:34;21.80;44.52
72202;SHT30;60105;54.956;73.412;2023-06-10T05:13:35;21.94;45.56
72202;SHT30;60105;54.956;73.412;2023-06-10T05:16:37;22.07;45.63
72202;SHT30;60105;54.956;73.412;2023-06-10T05:19:39;22.11;45.47
72202;SHT30;60105;54.956;73.412;2023-06-10T05:23:19;22.17;44.21
72202;SHT30;60105;54.956;73.412;2023-06-10T05:26:21;22.20;44.47
72202;SHT30;60105;54.956;73.412;2023-06-10T05:29:22;22.25;43.98
72202;SHT30;60105;54.956;73.412;2023-06-10T05:32:24;22.34;44.06
72202;SHT30;60105;54.956;73.412;2023-06-10T05:35:25;22.49;43.15
72202;SHT30;60105;54.956;73.412;2023-06-10T05:38:26;22.52;43.14
72202;SHT30;60105;54.956;73.412;2023-06-10T05:41:28;22.51;42.38
72202;SHT30;60105;54.956;73.412;2023-06-10T05:44:29;22.62;42.91
72202;SHT30;60105;54.956;73.412;2023-06-10T05:47:31;22.78;41.20
72202;SHT30;60105;54.956;73.412;2023-06-10T05:50:34;22.81;41.01
72202;SHT30;60105;54.956;73.412;2023-06-10T05:53:39;22.98;40.88
72202;SHT30;60105;54.956;73.412;2023-06-10T05:56:41;23.15;40.87
72202;SHT30;60105;54.956;73.412;2023-06-10T05:59:42;23.23;40.31
72202;SHT30;60105;54.956;73.412;2023-06-10T06:03:19;23.13;40.92
72202;SHT30;60105;54.956;73.412;2023-06-10T06:06:20;22.99;40.18
72202;SHT30;60105;54.956;73.412;2023-06-10T06:09:21;22.96;41.05
72202;SHT30;60105;54.956;73.412;2023-06-10T06:12:23;23.13;41.09
72202;SHT30;60105;54.956;73.412;2023-06-10T06:15:24;23.02;41.06
72202;SHT30;60105;54.956;73.412;2023-06-10T06:18:25;23.03;42.48
72202;SHT30;60105;54.956;73.412;2023-06-10T06:21:27;23.00;42.87
72202;SHT30;60105;54.956;73.412;2023-06-10T06:24:28;23.06;42.71
72202;SHT30;60105;54.956;73.412;2023-06-10T06:27:30;23.16;43.08
72202;SHT30;60105;54.956;73.412;2023-06-10T06:30:32;23.27;41.89
72202;SHT30;60105;54.956;73.412;2023-06-10T06:33:33;23.23;43.00
72202;SHT30;60105;54.956;73.412;2023-06-10T06:36:35;23.19;42.09
72202;SHT30;60105;54.956;73.412;2023-06-10T06:39:36;23.36;41.71
72202;SHT30;60105;54.956;73.412;2023-06-10T06:43:19;23.53;42.09
72202;SHT30;60105;54.956;73.412;2023-06-10T06:46:47;23.51;41.76
72202;SHT30;60105;54.956;73.412;2023-06-10T06:49:49;23.49;41.70
72202;SHT30;60105;54.956;73.412;2023-06-10T06:53:19;23.73;42.86
72202;SHT30;60105;54.956;73.412;2023-06-10T06:56:20;23.65;41.24
72202;SHT30;60105;54.956;73.412;2023-06-10T06:59:22;23.75;42.93
72202;SHT30;60105;54.956;73.412;2023-06-10T07:02:24;23.88;43.51
72202;SHT30;60105;54.956;73.412;2023-06-10T07:05:27;24.02;42.53
72202;SHT30;60105;54.956;73.412;2023-06-10T07:08:28;24.06;43.38
72202;SHT30;60105;54.956;73.412;2023-06-10T07:11:30;24.12;41.60
72202;SHT30;60105;54.956;73.412;2023-06-10T07:14:31;24.16;41.04
72202;SHT30;60105;54.956;73.412;2023-06-10T07:17:32;23.95;40.63
72202;SHT30;60105;54.956;73.412;2023-06-10T07:20:35;23.86;41.62
72202;SHT30;60105;54.956;73.412;2023-06-10T07:23:37;24.01;40.65
72202;SHT30;60105;54.956;73.412;2023-06-10T07:26:42;23.86;40.41
72202;SHT30;60105;54.956;73.412;2023-06-10T07:29:43;23.98;40.23
72202;SHT30;60105;54.956;73.412;2023-06-10T07:33:19;24.35;38.86
72202;SHT30;60105;54.956;73.412;2023-06-10T07:36:20;24.63;38.09
72202;SHT30;60105;54.956;73.412;2023-06-10T07:39:22;24.83;38.55
72202;SHT30;60105;54.956;73.412;2023-06-10T07:42:23;25.12;38.78
72202;SHT30;60105;54.956;73.412;2023-06-10T07:45:24;25.38;37.30
72202;SHT30;60105;54.956;73.412;2023-06-10T07:48:26;25.32;37.87
72202;SHT30;60105;54.956;73.412;2023-06-10T07:51:29;25.65;37.95
72202;SHT30;60105;54.956;73.412;2023-06-10T07:54:31;25.58;37.13
72202;SHT30;60105;54.956;73.412;2023-06-10T07:57:32;25.78;37.11
72202;SHT30;60105;54.956;73.412;2023-06-10T08:00:37;25.93;36.20
72202;SHT30;60105;54.956;73.412;2023-06-10T08:03:39;25.93;36.01
72202;SHT30;60105;54.956;73.412;2023-06-10T08:06:40;25.51;36.14
72202;SHT30;60105;54.956;73.412;2023-06-10T08:09:42;25.39;36.20
72202;SHT30;60105;54.956;73.412;2023-06-10T08:13:19;25.59;36.45
72202;SHT30;60105;54.956;73.412;2023-06-10T08:16:20;25.68;35.75
72202;SHT30;60105;54.956;73.412;2023-06-10T08:19:22;25.52;35.84
72202;SHT30;60105;54.956;73.412;2023-06-10T08:22:23;25.29;36.60
72202;SHT30;60105;54.956;73.412;2023-06-10T08:25:24;25.11;37.01
72202;SHT30;60105;54.956;73.412;2023-06-10T08:28:25;25.00;36.62
72202;SHT30;60105;54.956;73.412;2023-06-10T08:31:27;25.03;37.18
72202;SHT30;60105;54.956;73.412;2023-06-10T08:34:28;25.07;36.70
72202;SHT30;60105;54.956;73.412;2023-06-10T08:37:29;24.88;41.32
72202;SHT30;60105;54.956;73.412;2023-06-10T08:40:32;24.49;39.24
72202;SHT30;60105;54.956;73.412;2023-06-10T08:44:04;24.33;39.37
72202;SHT30;60105;54.956;73.412;2023-06-10T08:47:15;24.28;39.35
72202;SHT30;60105;54.956;73.412;2023-06-10T08:50:17;24.15;38.25
72202;SHT30;60105;54.956;73.412;2023-06-10T08:53:20;24.04;41.07
72202;SHT30;60105;54.956;73.412;2023-06-10T08:56:23;23.79;42.58
72202;SHT30;60105;54.956;73.412;2023-06-10T08:59:27;23.53;43.36
72202;SHT30;60105;54.956;73.412;2023-06-10T09:02:28;23.37;43.75
72202;SHT30;60105;54.956;73.412;2023-06-10T09:05:33;23.31;44.38
72202;SHT30;60105;54.956;73.412;2023-06-10T09:08:34;23.30;45.49
72202;SHT30;60105;54.956;73.412;2023-06-10T09:11:37;23.22;46.38
72202;SHT30;60105;54.956;73.412;2023-06-10T09:14:39;23.22;47.97
72202;SHT30;60105;54.956;73.412;2023-06-10T09:18:19;23.22;45.34
72202;SHT30;60105;54.956;73.412;2023-06-10T09:21:24;23.24;46.47
72202;SHT30;60105;54.956;73.412;2023-06-10T09:24:26;23.27;43.60
72202;SHT30;60105;54.956;73.412;2023-06-10T09:27:30;23.30;44.36
72202;SHT30;60105;54.956;73.412;2023-06-10T09:30:34;23.42;45.55
72202;SHT30;60105;54.956;73.412;2023-06-10T09:33:39;23.37;46.99
72202;SHT30;60105;54.956;73.412;2023-06-10T09:36:41;23.36;46.61
72202;SHT30;60105;54.956;73.412;2023-06-10T09:39:42;23.43;47.37
72202;SHT30;60105;54.956;73.412;2023-06-10T09:43:19;23.39;47.39
72202;SHT30;60105;54.956;73.412;2023-06-10T09:46:21;23.24;46.48
72202;SHT30;60105;54.956;73.412;2023-06-10T09:49:23;23.15;46.69
72202;SHT30;60105;54.956;73.412;2023-06-10T09:52:28;23.03;47.78
72202;SHT30;60105;54.956;73.412;2023-06-10T09:55:39;22.94;48.72
72202;SHT30;60105;54.956;73.412;2023-06-10T09:58:41;22.91;50.58
72202;SHT30;60105;54.956;73.412;2023-06-10T10:01:54;22.91;49.42
72202;SHT30;60105;54.956;73.412;2023-06-10T10:05:02;22.88;48.13
72202;SHT30;60105;54.956;73.412;2023-06-10T10:08:18;22.95;50.58
72202;SHT30;60105;54.956;73.412;2023-06-10T10:11:21;23.03;54.52
72202;SHT30;60105;54.956;73.412;2023-06-10T10:14:28;22.95;61.85
72202;SHT30;60105;54.956;73.412;2023-06-10T10:17:48;22.73;64.30
72202;SHT30;60105;54.956;73.412;2023-06-10T10:20:51;22.59;66.37
72202;SHT30;60105;54.956;73.412;2023-06-10T10:24:10;22.47;64.23
72202;SHT30;60105;54.956;73.412;2023-06-10T10:27:28;22.59;65.39
72202;SHT30;60105;54.956;73.412;2023-06-10T10:30:32;22.96;62.32
72202;SHT30;60105;54.956;73.412;2023-06-10T10:33:54;23.06;61.01
72202;SHT30;60105;54.956;73.412;2023-06-10T10:36:57;23.17;60.45
72202;SHT30;60105;54.956;73.412;2023-06-10T10:40:00;23.05;61.40
72202;SHT30;60105;54.956;73.412;2023-06-10T10:43:18;23.30;57.94
72202;SHT30;60105;54.956;73.412;2023-06-10T10:46:20;23.53;57.53
72202;SHT30;60105;54.956;73.412;2023-06-10T10:49:22;23.82;55.45
72202;SHT30;60105;54.956;73.412;2023-06-10T10:52:23;24.16;55.90
72202;SHT30;60105;54.956;73.412;2023-06-10T10:55:26;24.33;55.23
72202;SHT30;60105;54.956;73.412;2023-06-10T10:58:27;24.21;57.02
72202;SHT30;60105;54.956;73.412;2023-06-10T11:01:40;23.78;53.73
72202;SHT30;60105;54.956;73.412;2023-06-10T11:04:48;23.55;52.48
72202;SHT30;60105;54.956;73.412;2023-06-10T11:11:29;23.28;51.89
72202;SHT30;60105;54.956;73.412;2023-06-10T11:14:31;23.31;51.93
72202;SHT30;60105;54.956;73.412;2023-06-10T11:17:33;23.30;50.93
72202;SHT30;60105;54.956;73.412;2023-06-10T11:20:56;23.24;54.82
72202;SHT30;60105;54.956;73.412;2023-06-10T11:23:58;23.16;48.21
72202;SHT30;60105;54.956;73.412;2023-06-10T11:30:25;23.16;52.37
72202;SHT30;60105;54.956;73.412;2023-06-10T11:33:27;23.46;47.34
72202;SHT30;60105;54.956;73.412;2023-06-10T11:36:30;24.00;47.37
72202;SHT30;60105;54.956;73.412;2023-06-10T11:39:32;24.25;48.41
72202;SHT30;60105;54.956;73.412;2023-06-10T11:42:39;24.05;56.77
72202;SHT30;60105;54.956;73.412;2023-06-10T11:45:41;24.12;50.36
72202;SHT30;60105;54.956;73.412;2023-06-10T11:48:52;24.46;46.85
72202;SHT30;60105;54.956;73.412;2023-06-10T11:51:56;24.43;46.27
72202;SHT30;60105;54.956;73.412;2023-06-10T11:54:58;24.35;45.84
72202;SHT30;60105;54.956;73.412;2023-06-10T11:57:59;24.48;42.92
72202;SHT30;60105;54.956;73.412;2023-06-10T12:01:01;24.23;43.17
72202;SHT30;60105;54.956;73.412;2023-06-10T12:04:04;24.05;43.33
72202;SHT30;60105;54.956;73.412;2023-06-10T12:07:05;24.15;41.95
72202;SHT30;60105;54.956;73.412;2023-06-10T12:10:27;24.11;42.58
72202;SHT30;60105;54.956;73.412;2023-06-10T12:13:28;24.09;38.16
72202;SHT30;60105;54.956;73.412;2023-06-10T12:16:29;24.30;37.84
72202;SHT30;60105;54.956;73.412;2023-06-10T12:19:31;24.48;38.32
72202;SHT30;60105;54.956;73.412;2023-06-10T12:22:43;24.55;37.04
72202;SHT30;60105;54.956;73.412;2023-06-10T12:25:54;24.71;37.43
72202;SHT30;60105;54.956;73.412;2023-06-10T12:28:55;24.57;36.91
72202;SHT30;60105;54.956;73.412;2023-06-10T12:32:01;24.39;36.61
72202;SHT30;60105;54.956;73.412;2023-06-10T12:35:05;24.30;36.65
72202;SHT30;60105;54.956;73.412;2023-06-10T12:38:22;24.39;37.24
72202;SHT30;60105;54.956;73.412;2023-06-10T12:41:25;24.66;36.63
72202;SHT30;60105;54.956;73.412;2023-06-10T12:44:30;24.91;35.09
72202;SHT30;60105;54.956;73.412;2023-06-10T12:47:41;24.69;35.76
72202;SHT30;60105;54.956;73.412;2023-06-10T12:50:43;24.49;37.35
72202;SHT30;60105;54.956;73.412;2023-06-10T12:53:45;24.53;39.61
72202;SHT30;60105;54.956;73.412;2023-06-10T12:56:47;24.69;39.84
72202;SHT30;60105;54.956;73.412;2023-06-10T12:59:48;24.48;42.70
72202;SHT30;60105;54.956;73.412;2023-06-10T13:03:18;24.08;44.09
72202;SHT30;60105;54.956;73.412;2023-06-10T13:06:20;23.81;45.86
72202;SHT30;60105;54.956;73.412;2023-06-10T13:09:21;23.53;48.02
72202;SHT30;60105;54.956;73.412;2023-06-10T13:12:22;23.36;47.90
72202;SHT30;60105;54.956;73.412;2023-06-10T13:15:24;23.15;47.19
72202;SHT30;60105;54.956;73.412;2023-06-10T13:18:28;22.92;47.88
72202;SHT30;60105;54.956;73.412;2023-06-10T13:21:29;22.59;47.68
72202;SHT30;60105;54.956;73.412;2023-06-10T13:24:31;22.44;48.40
72202;SHT30;60105;54.956;73.412;2023-06-10T13:27:32;22.28;50.32
72202;SHT30;60105;54.956;73.412;2023-06-10T13:30:34;22.10;51.34
72202;SHT30;60105;54.956;73.412;2023-06-10T13:33:36;21.87;51.53
72202;SHT30;60105;54.956;73.412;2023-06-10T13:36:37;21.67;52.87
72202;SHT30;60105;54.956;73.412;2023-06-10T13:39:39;21.53;52.72
72202;SHT30;60105;54.956;73.412;2023-06-10T13:43:19;21.42;54.36
72202;SHT30;60105;54.956;73.412;2023-06-10T13:46:21;21.32;54.54
72202;SHT30;60105;54.956;73.412;2023-06-10T13:49:25;21.25;55.17
72202;SHT30;60105;54.956;73.412;2023-06-10T13:52:26;21.37;53.61
72202;SHT30;60105;54.956;73.412;2023-06-10T13:55:27;21.34;53.19
72202;SHT30;60105;54.956;73.412;2023-06-10T13:58:29;21.18;53.82
72202;SHT30;60105;54.956;73.412;2023-06-10T14:01:30;21.08;54.90
72202;SHT30;60105;54.956;73.412;2023-06-10T14:04:31;21.05;54.42
72202;SHT30;60105;54.956;73.412;2023-06-10T14:07:34;21.04;56.29
72202;SHT30;60105;54.956;73.412;2023-06-10T14:10:36;21.00;54.42
72202;SHT30;60105;54.956;73.412;2023-06-10T14:13:37;20.95;54.09
72202;SHT30;60105;54.956;73.412;2023-06-10T14:16:39;20.80;54.79
72202;SHT30;60105;54.956;73.412;2023-06-10T14:19:41;20.70;55.96
72202;SHT30;60105;54.956;73.412;2023-06-10T14:23:19;20.60;56.29
72202;SHT30;60105;54.956;73.412;2023-06-10T14:26:20;20.54;56.05
72202;SHT30;60105;54.956;73.412;2023-06-10T14:29:24;20.37;56.78
72202;SHT30;60105;54.956;73.412;2023-06-10T14:32:25;20.49;57.22
72202;SHT30;60105;54.956;73.412;2023-06-10T14:35:26;21.27;54.39
72202;SHT30;60105;54.956;73.412;2023-06-10T14:38:28;20.79;56.03
72202;SHT30;60105;54.956;73.412;2023-06-10T14:41:29;20.56;57.46
72202;SHT30;60105;54.956;73.412;2023-06-10T14:44:30;20.66;56.86
72202;SHT30;60105;54.956;73.412;2023-06-10T14:47:32;20.44;57.79
72202;SHT30;60105;54.956;73.412;2023-06-10T14:50:37;20.85;57.03
72202;SHT30;60105;54.956;73.412;2023-06-10T14:53:38;21.66;55.09
72202;SHT30;60105;54.956;73.412;2023-06-10T14:56:40;22.10;52.54
72202;SHT30;60105;54.956;73.412;2023-06-10T14:59:41;22.30;53.28
72202;SHT30;60105;54.956;73.412;2023-06-10T15:03:19;22.33;52.16
72202;SHT30;60105;54.956;73.412;2023-06-10T15:06:20;22.33;51.98
72202;SHT30;60105;54.956;73.412;2023-06-10T15:09:24;22.17;52.38
72202;SHT30;60105;54.956;73.412;2023-06-10T15:12:25;22.07;52.93
72202;SHT30;60105;54.956;73.412;2023-06-10T15:15:28;21.66;54.29
72202;SHT30;60105;54.956;73.412;2023-06-10T15:18:30;21.04;55.91
72202;SHT30;60105;54.956;73.412;2023-06-10T15:21:31;20.63;58.26
72202;SHT30;60105;54.956;73.412;2023-06-10T15:24:32;20.36;57.84
72202;SHT30;60105;54.956;73.412;2023-06-10T15:27:33;20.09;58.99
72202;SHT30;60105;54.956;73.412;2023-06-10T15:30:35;19.92;59.59
72202;SHT30;60105;54.956;73.412;2023-06-10T15:33:38;19.75;61.23
72202;SHT30;60105;54.956;73.412;2023-06-10T15:36:39;19.64;60.81
72202;SHT30;60105;54.956;73.412;2023-06-10T15:39:41;19.55;61.55
72202;SHT30;60105;54.956;73.412;2023-06-10T15:43:19;19.33;62.62
72202;SHT30;60105;54.956;73.412;2023-06-10T15:46:21;19.30;62.82
72202;SHT30;60105;54.956;73.412;2023-06-10T15:49:22;19.19;62.34
72202;SHT30;60105;54.956;73.412;2023-06-10T15:52:24;19.03;63.02
72202;SHT30;60105;54.956;73.412;2023-06-10T15:55:26;18.92;63.86
72202;SHT30;60105;54.956;73.412;2023-06-10T15:58:29;18.82;64.12
72202;SHT30;60105;54.956;73.412;2023-06-10T16:01:31;18.77;63.50
72202;SHT30;60105;54.956;73.412;2023-06-10T16:04:32;18.77;64.11
72202;SHT30;60105;54.956;73.412;2023-06-10T16:07:33;18.76;64.35
72202;SHT30;60105;54.956;73.412;2023-06-10T16:10:35;18.69;63.91
72202;SHT30;60105;54.956;73.412;2023-06-10T16:13:37;18.66;64.89
72202;SHT30;60105;54.956;73.412;2023-06-10T16:16:38;18.58;64.56
72202;SHT30;60105;54.956;73.412;2023-06-10T16:19:39;18.55;65.20
72202;SHT30;60105;54.956;73.412;2023-06-10T16:23:19;18.47;65.29
72202;SHT30;60105;54.956;73.412;2023-06-10T16:26:21;18.40;65.59
72202;SHT30;60105;54.956;73.412;2023-06-10T16:29:23;18.34;66.33
72202;SHT30;60105;54.956;73.412;2023-06-10T16:32:24;18.24;66.09
72202;SHT30;60105;54.956;73.412;2023-06-10T16:35:25;18.31;65.69
72202;SHT30;60105;54.956;73.412;2023-06-10T16:38:27;18.28;65.75
72202;SHT30;60105;54.956;73.412;2023-06-10T16:41:28;18.31;66.36
72202;SHT30;60105;54.956;73.412;2023-06-10T16:44:29;18.24;66.07
72202;SHT30;60105;54.956;73.412;2023-06-10T16:47:31;18.20;65.90
72202;SHT30;60105;54.956;73.412;2023-06-10T16:50:32;18.20;66.24
72202;SHT30;60105;54.956;73.412;2023-06-10T16:53:34;18.17;66.22
72202;SHT30;60105;54.956;73.412;2023-06-10T16:56:35;18.10;66.92
72202;SHT30;60105;54.956;73.412;2023-06-10T16:59:37;18.16;66.88
72202;SHT30;60105;54.956;73.412;2023-06-10T17:03:18;18.07;67.58
72202;SHT30;60105;54.956;73.412;2023-06-10T17:06:20;18.03;67.41
72202;SHT30;60105;54.956;73.412;2023-06-10T17:09:21;17.93;67.91
72202;SHT30;60105;54.956;73.412;2023-06-10T17:12:22;17.91;68.55
72202;SHT30;60105;54.956;73.412;2023-06-10T17:15:24;17.87;69.13
72202;SHT30;60105;54.956;73.412;2023-06-10T17:18:25;17.80;69.05
72202;SHT30;60105;54.956;73.412;2023-06-10T17:21:27;17.75;68.83
72202;SHT30;60105;54.956;73.412;2023-06-10T17:24:28;17.68;69.05
72202;SHT30;60105;54.956;73.412;2023-06-10T17:27:29;17.72;69.20
72202;SHT30;60105;54.956;73.412;2023-06-10T17:30:30;17.72;69.28
72202;SHT30;60105;54.956;73.412;2023-06-10T17:33:32;17.77;69.30
72202;SHT30;60105;54.956;73.412;2023-06-10T17:36:36;17.77;69.05
72202;SHT30;60105;54.956;73.412;2023-06-10T17:39:58;17.76;69.07
72202;SHT30;60105;54.956;73.412;2023-06-10T17:43:18;17.68;69.86
72202;SHT30;60105;54.956;73.412;2023-06-10T17:46:21;17.58;69.93
72202;SHT30;60105;54.956;73.412;2023-06-10T17:49:23;17.62;70.21
72202;SHT30;60105;54.956;73.412;2023-06-10T17:52:25;17.56;70.15
72202;SHT30;60105;54.956;73.412;2023-06-10T17:55:26;17.56;70.14
72202;SHT30;60105;54.956;73.412;2023-06-10T17:58:27;17.55;70.45
72202;SHT30;60105;54.956;73.412;2023-06-10T18:01:29;17.45;70.67
72202;SHT30;60105;54.956;73.412;2023-06-10T18:04:30;17.49;70.74
72202;SHT30;60105;54.956;73.412;2023-06-10T18:07:32;17.52;70.82
72202;SHT30;60105;54.956;73.412;2023-06-10T18:10:33;17.46;70.96
72202;SHT30;60105;54.956;73.412;2023-06-10T18:13:34;17.39;71.19
72202;SHT30;60105;54.956;73.412;2023-06-10T18:16:36;17.34;71.25
72202;SHT30;60105;54.956;73.412;2023-06-10T18:19:37;17.35;71.48
72202;SHT30;60105;54.956;73.412;2023-06-10T18:23:18;17.32;71.77
72202;SHT30;60105;54.956;73.412;2023-06-10T18:26:20;17.21;71.89
72202;SHT30;60105;54.956;73.412;2023-06-10T18:29:22;17.28;71.72
72202;SHT30;60105;54.956;73.412;2023-06-10T18:32:23;17.19;72.19
72202;SHT30;60105;54.956;73.412;2023-06-10T18:35:24;17.18;72.30
72202;SHT30;60105;54.956;73.412;2023-06-10T18:38:26;17.19;72.14
72202;SHT30;60105;54.956;73.412;2023-06-10T18:41:27;17.12;72.33
72202;SHT30;60105;54.956;73.412;2023-06-10T18:44:29;17.04;72.03
72202;SHT30;60105;54.956;73.412;2023-06-10T18:47:30;17.08;71.83
72202;SHT30;60105;54.956;73.412;2023-06-10T18:50:31;17.06;71.91
72202;SHT30;60105;54.956;73.412;2023-06-10T18:53:33;17.01;71.63
72202;SHT30;60105;54.956;73.412;2023-06-10T18:56:34;16.94;72.02
72202;SHT30;60105;54.956;73.412;2023-06-10T18:59:36;16.81;72.51
72202;SHT30;60105;54.956;73.412;2023-06-10T19:03:18;16.69;72.91
72202;SHT30;60105;54.956;73.412;2023-06-10T19:06:20;16.67;73.41
72202;SHT30;60105;54.956;73.412;2023-06-10T19:09:21;16.69;73.19
72202;SHT30;60105;54.956;73.412;2023-06-10T19:12:24;16.61;73.41
72202;SHT30;60105;54.956;73.412;2023-06-10T19:15:25;16.57;73.70
72202;SHT30;60105;54.956;73.412;2023-06-10T19:18:26;16.57;73.93
72202;SHT30;60105;54.956;73.412;2023-06-10T19:21:28;16.61;73.80